sensor_id;sensor_type;location;lat;lon;timestamp;P1;durP1;ratioP1;P2;durP2;ratioP2
66585;SDS011;53444;45.822;16.092;2022-11-20T00:00:18;8.18;;;3.80;;
66585;SDS011;53444;45.822;16.092;2022-11-20T00:02:44;6.38;;;4.35;;
66585;SDS011;53444;45.822;16.092;2022-11-20T00:05:11;8.98;;;4.43;;
66585;SDS011;53444;45.822;16.092;2022-11-20T00:07:39;8.23;;;4.18;;
66585;SDS011;53444;45.822;16.092;2022-11-20T00:10:06;7.07;;;3.83;;
66585;SDS011;53444;45.822;16.092;2022-11-20T00:12:33;6.68;;;3.60;;
66585;SDS011;53444;45.822;16.092;2022-11-20T00:14:59;11.20;;;3.70;;
66585;SDS011;53444;45.822;16.092;2022-11-20T00:17:26;8.13;;;3.65;;
66585;SDS011;53444;45.822;16.092;2022-11-20T00:19:53;7.43;;;3.65;;
66585;SDS011;53444;45.822;16.092;2022-11-20T00:22:19;7.47;;;3.77;;
66585;SDS011;53444;45.822;16.092;2022-11-20T00:24:47;7.60;;;3.10;;
66585;SDS011;53444;45.822;16.092;2022-11-20T00:27:14;9.55;;;3.95;;
66585;SDS011;53444;45.822;16.092;2022-11-20T00:29:40;8.82;;;4.03;;
66585;SDS011;53444;45.822;16.092;2022-11-20T00:32:07;7.72;;;4.30;;
66585;SDS011;53444;45.822;16.092;2022-11-20T00:34:33;7.07;;;3.30;;
66585;SDS011;53444;45.822;16.092;2022-11-20T00:37:00;6.32;;;3.58;;
66585;SDS011;53444;45.822;16.092;2022-11-20T00:39:26;8.32;;;3.72;;
66585;SDS011;53444;45.822;16.092;2022-11-20T00:41:54;9.65;;;3.72;;
66585;SDS011;53444;45.822;16.092;2022-11-20T00:44:21;8.82;;;4.15;;
66585;SDS011;53444;45.822;16.092;2022-11-20T00:46:47;7.77;;;3.20;;
66585;SDS011;53444;45.822;16.092;2022-11-20T00:49:14;10.55;;;3.92;;
66585;SDS011;53444;45.822;16.092;2022-11-20T00:51:41;9.30;;;3.45;;
66585;SDS011;53444;45.822;16.092;2022-11-20T00:54:07;6.50;;;3.47;;
66585;SDS011;53444;45.822;16.092;2022-11-20T00:56:34;7.55;;;3.67;;
66585;SDS011;53444;45.822;16.092;2022-11-20T00:59:02;6.77;;;2.80;;
66585;SDS011;53444;45.822;16.092;2022-11-20T01:01:29;7.65;;;3.45;;
66585;SDS011;53444;45.822;16.092;2022-11-20T01:03:56;10.88;;;3.55;;
66585;SDS011;53444;45.822;16.092;2022-11-20T01:06:24;7.60;;;3.78;;
66585;SDS011;53444;45.822;16.092;2022-11-20T01:08:53;7.97;;;3.72;;
66585;SDS011;53444;45.822;16.092;2022-11-20T01:11:21;9.43;;;3.53;;
66585;SDS011;53444;45.822;16.092;2022-11-20T01:13:50;6.55;;;3.70;;
66585;SDS011;53444;45.822;16.092;2022-11-20T01:16:19;8.02;;;3.45;;
66585;SDS011;53444;45.822;16.092;2022-11-20T01:18:48;4.82;;;2.60;;
66585;SDS011;53444;45.822;16.092;2022-11-20T01:21:18;5.20;;;3.00;;
66585;SDS011;53444;45.822;16.092;2022-11-20T01:23:47;5.83;;;3.03;;
66585;SDS011;53444;45.822;16.092;2022-11-20T01:26:15;5.25;;;2.67;;
66585;SDS011;53444;45.822;16.092;2022-11-20T01:28:43;5.63;;;2.90;;
66585;SDS011;53444;45.822;16.092;2022-11-20T01:31:10;5.70;;;2.72;;
66585;SDS011;53444;45.822;16.092;2022-11-20T01:33:40;5.80;;;2.47;;
66585;SDS011;53444;45.822;16.092;2022-11-20T01:36:08;4.70;;;2.40;;
66585;SDS011;53444;45.822;16.092;2022-11-20T01:38:35;4.50;;;2.30;;
66585;SDS011;53444;45.822;16.092;2022-11-20T01:41:02;3.80;;;2.40;;
66585;SDS011;53444;45.822;16.092;2022-11-20T01:43:29;3.58;;;1.98;;
66585;SDS011;53444;45.822;16.092;2022-11-20T01:45:56;3.97;;;2.05;;
66585;SDS011;53444;45.822;16.092;2022-11-20T01:48:26;4.00;;;2.60;;
66585;SDS011;53444;45.822;16.092;2022-11-20T01:50:59;5.20;;;2.70;;
66585;SDS011;53444;45.822;16.092;2022-11-20T01:53:30;4.25;;;2.00;;
66585;SDS011;53444;45.822;16.092;2022-11-20T01:56:01;3.65;;;2.00;;
66585;SDS011;53444;45.822;16.092;2022-11-20T01:58:31;3.53;;;1.90;;
66585;SDS011;53444;45.822;16.092;2022-11-20T02:01:01;3.97;;;1.73;;
66585;SDS011;53444;45.822;16.092;2022-11-20T02:03:29;4.55;;;2.20;;
66585;SDS011;53444;45.822;16.092;2022-11-20T02:05:58;4.68;;;2.20;;
66585;SDS011;53444;45.822;16.092;2022-11-20T02:08:33;4.32;;;1.90;;
66585;SDS011;53444;45.822;16.092;2022-11-20T02:11:01;4.93;;;2.70;;
66585;SDS011;53444;45.822;16.092;2022-11-20T02:13:28;6.23;;;2.83;;
66585;SDS011;53444;45.822;16.092;2022-11-20T02:16:10;6.25;;;2.78;;
66585;SDS011;53444;45.822;16.092;2022-11-20T02:18:38;5.07;;;2.78;;
66585;SDS011;53444;45.822;16.092;2022-11-20T02:21:08;7.80;;;3.15;;
66585;SDS011;53444;45.822;16.092;2022-11-20T02:23:51;6.88;;;2.67;;
66585;SDS011;53444;45.822;16.092;2022-11-20T02:26:21;5.67;;;2.73;;
66585;SDS011;53444;45.822;16.092;2022-11-20T02:28:49;3.65;;;2.00;;
66585;SDS011;53444;45.822;16.092;2022-11-20T02:31:17;3.97;;;1.90;;
66585;SDS011;53444;45.822;16.092;2022-11-20T02:33:43;4.25;;;1.98;;
66585;SDS011;53444;45.822;16.092;2022-11-20T02:36:11;2.78;;;1.67;;
66585;SDS011;53444;45.822;16.092;2022-11-20T02:38:40;3.83;;;1.97;;
66585;SDS011;53444;45.822;16.092;2022-11-20T02:41:09;3.45;;;1.80;;
66585;SDS011;53444;45.822;16.092;2022-11-20T02:43:35;3.17;;;1.95;;
66585;SDS011;53444;45.822;16.092;2022-11-20T02:46:02;3.30;;;1.90;;
66585;SDS011;53444;45.822;16.092;2022-11-20T02:48:29;4.68;;;2.15;;
66585;SDS011;53444;45.822;16.092;2022-11-20T02:50:55;4.83;;;2.27;;
66585;SDS011;53444;45.822;16.092;2022-11-20T02:53:22;4.43;;;2.25;;
66585;SDS011;53444;45.822;16.092;2022-11-20T02:55:48;4.28;;;2.30;;
66585;SDS011;53444;45.822;16.092;2022-11-20T02:58:16;4.47;;;2.65;;
66585;SDS011;53444;45.822;16.092;2022-11-20T03:00:43;4.97;;;2.35;;
66585;SDS011;53444;45.822;16.092;2022-11-20T03:03:10;4.20;;;2.20;;
66585;SDS011;53444;45.822;16.092;2022-11-20T03:05:36;5.03;;;2.30;;
66585;SDS011;53444;45.822;16.092;2022-11-20T03:08:03;4.00;;;2.00;;
66585;SDS011;53444;45.822;16.092;2022-11-20T03:10:30;3.65;;;2.03;;
66585;SDS011;53444;45.822;16.092;2022-11-20T03:12:56;3.92;;;2.20;;
66585;SDS011;53444;45.822;16.092;2022-11-20T03:15:24;3.80;;;2.20;;
66585;SDS011;53444;45.822;16.092;2022-11-20T03:17:52;2.67;;;1.50;;
66585;SDS011;53444;45.822;16.092;2022-11-20T03:20:20;3.72;;;1.95;;
66585;SDS011;53444;45.822;16.092;2022-11-20T03:22:46;3.17;;;1.70;;
66585;SDS011;53444;45.822;16.092;2022-11-20T03:25:13;4.78;;;2.30;;
66585;SDS011;53444;45.822;16.092;2022-11-20T03:27:40;2.40;;;1.40;;
66585;SDS011;53444;45.822;16.092;2022-11-20T03:30:07;2.97;;;1.42;;
66585;SDS011;53444;45.822;16.092;2022-11-20T03:32:35;2.85;;;1.50;;
66585;SDS011;53444;45.822;16.092;2022-11-20T03:35:02;5.00;;;1.60;;
66585;SDS011;53444;45.822;16.092;2022-11-20T03:37:29;2.85;;;1.70;;
66585;SDS011;53444;45.822;16.092;2022-11-20T03:39:55;2.37;;;1.53;;
66585;SDS011;53444;45.822;16.092;2022-11-20T03:42:22;2.72;;;1.30;;
66585;SDS011;53444;45.822;16.092;2022-11-20T03:45:06;3.90;;;1.60;;
66585;SDS011;53444;45.822;16.092;2022-11-20T03:47:33;3.03;;;1.30;;
66585;SDS011;53444;45.822;16.092;2022-11-20T03:50:01;4.30;;;1.60;;
66585;SDS011;53444;45.822;16.092;2022-11-20T03:52:28;3.47;;;1.47;;
66585;SDS011;53444;45.822;16.092;2022-11-20T03:54:55;1.92;;;0.90;;
66585;SDS011;53444;45.822;16.092;2022-11-20T03:57:21;2.53;;;1.30;;
66585;SDS011;53444;45.822;16.092;2022-11-20T03:59:48;2.25;;;1.10;;
66585;SDS011;53444;45.822;16.092;2022-11-20T04:02:14;2.72;;;1.20;;
66585;SDS011;53444;45.822;16.092;2022-11-20T04:04:41;2.70;;;0.97;;
66585;SDS011;53444;45.822;16.092;2022-11-20T04:07:09;2.15;;;1.10;;
66585;SDS011;53444;45.822;16.092;2022-11-20T04:09:35;1.80;;;1.00;;
66585;SDS011;53444;45.822;16.092;2022-11-20T04:12:02;1.90;;;0.90;;
66585;SDS011;53444;45.822;16.092;2022-11-20T04:14:29;2.60;;;0.98;;
66585;SDS011;53444;45.822;16.092;2022-11-20T04:16:55;1.97;;;0.90;;
66585;SDS011;53444;45.822;16.092;2022-11-20T04:19:22;1.67;;;0.90;;
66585;SDS011;53444;45.822;16.092;2022-11-20T04:21:49;2.20;;;0.90;;
66585;SDS011;53444;45.822;16.092;2022-11-20T04:24:17;1.50;;;0.85;;
66585;SDS011;53444;45.822;16.092;2022-11-20T04:26:43;1.25;;;0.70;;
66585;SDS011;53444;45.822;16.092;2022-11-20T04:29:10;1.47;;;0.60;;
66585;SDS011;53444;45.822;16.092;2022-11-20T04:31:37;1.55;;;0.60;;
66585;SDS011;53444;45.822;16.092;2022-11-20T04:34:04;1.70;;;0.80;;
66585;SDS011;53444;45.822;16.092;2022-11-20T04:36:33;1.73;;;0.60;;
66585;SDS011;53444;45.822;16.092;2022-11-20T04:39:00;1.83;;;0.60;;
66585;SDS011;53444;45.822;16.092;2022-11-20T04:41:30;1.13;;;0.60;;
66585;SDS011;53444;45.822;16.092;2022-11-20T04:44:00;1.40;;;0.60;;
66585;SDS011;53444;45.822;16.092;2022-11-20T04:46:28;2.03;;;1.13;;
66585;SDS011;53444;45.822;16.092;2022-11-20T04:48:56;1.92;;;0.88;;
66585;SDS011;53444;45.822;16.092;2022-11-20T04:51:23;1.23;;;0.75;;
66585;SDS011;53444;45.822;16.092;2022-11-20T04:53:50;1.27;;;0.60;;
66585;SDS011;53444;45.822;16.092;2022-11-20T04:56:17;2.03;;;0.82;;
66585;SDS011;53444;45.822;16.092;2022-11-20T04:58:45;1.20;;;0.70;;
66585;SDS011;53444;45.822;16.092;2022-11-20T05:01:12;1.65;;;0.70;;
66585;SDS011;53444;45.822;16.092;2022-11-20T05:03:39;1.60;;;0.65;;
66585;SDS011;53444;45.822;16.092;2022-11-20T05:06:07;1.40;;;0.73;;
66585;SDS011;53444;45.822;16.092;2022-11-20T05:08:34;1.58;;;0.55;;
66585;SDS011;53444;45.822;16.092;2022-11-20T05:11:01;0.93;;;0.70;;
66585;SDS011;53444;45.822;16.092;2022-11-20T05:13:28;1.65;;;0.80;;
66585;SDS011;53444;45.822;16.092;2022-11-20T05:15:59;2.17;;;1.17;;
66585;SDS011;53444;45.822;16.092;2022-11-20T05:18:27;3.40;;;1.40;;
66585;SDS011;53444;45.822;16.092;2022-11-20T05:20:54;2.03;;;0.90;;
66585;SDS011;53444;45.822;16.092;2022-11-20T05:23:22;1.77;;;1.02;;
66585;SDS011;53444;45.822;16.092;2022-11-20T05:25:51;1.75;;;0.63;;
66585;SDS011;53444;45.822;16.092;2022-11-20T05:28:18;1.95;;;1.00;;
66585;SDS011;53444;45.822;16.092;2022-11-20T05:30:45;2.40;;;0.90;;
66585;SDS011;53444;45.822;16.092;2022-11-20T05:33:13;1.33;;;0.68;;
66585;SDS011;53444;45.822;16.092;2022-11-20T05:35:40;1.17;;;0.60;;
66585;SDS011;53444;45.822;16.092;2022-11-20T05:38:07;2.25;;;0.93;;
66585;SDS011;53444;45.822;16.092;2022-11-20T05:40:35;1.58;;;1.05;;
66585;SDS011;53444;45.822;16.092;2022-11-20T05:43:01;2.00;;;0.73;;
66585;SDS011;53444;45.822;16.092;2022-11-20T05:45:28;1.90;;;0.90;;
66585;SDS011;53444;45.822;16.092;2022-11-20T05:47:57;1.58;;;1.00;;
66585;SDS011;53444;45.822;16.092;2022-11-20T05:50:25;2.08;;;0.98;;
66585;SDS011;53444;45.822;16.092;2022-11-20T05:52:52;1.55;;;0.90;;
66585;SDS011;53444;45.822;16.092;2022-11-20T05:55:18;2.90;;;0.90;;
66585;SDS011;53444;45.822;16.092;2022-11-20T05:57:45;2.25;;;1.20;;
66585;SDS011;53444;45.822;16.092;2022-11-20T06:00:12;2.47;;;1.15;;
66585;SDS011;53444;45.822;16.092;2022-11-20T06:02:40;2.45;;;1.08;;
66585;SDS011;53444;45.822;16.092;2022-11-20T06:05:06;1.92;;;0.85;;
66585;SDS011;53444;45.822;16.092;2022-11-20T06:07:35;1.77;;;1.00;;
66585;SDS011;53444;45.822;16.092;2022-11-20T06:10:02;1.75;;;0.98;;
66585;SDS011;53444;45.822;16.092;2022-11-20T06:12:30;2.83;;;1.00;;
66585;SDS011;53444;45.822;16.092;2022-11-20T06:14:58;2.38;;;1.17;;
66585;SDS011;53444;45.822;16.092;2022-11-20T06:17:24;2.22;;;0.90;;
66585;SDS011;53444;45.822;16.092;2022-11-20T06:19:51;2.20;;;1.20;;
66585;SDS011;53444;45.822;16.092;2022-11-20T06:22:18;1.80;;;0.95;;
66585;SDS011;53444;45.822;16.092;2022-11-20T06:24:46;1.25;;;0.77;;
66585;SDS011;53444;45.822;16.092;2022-11-20T06:27:12;2.10;;;1.10;;
66585;SDS011;53444;45.822;16.092;2022-11-20T06:29:39;1.60;;;0.82;;
66585;SDS011;53444;45.822;16.092;2022-11-20T06:32:05;2.07;;;0.90;;
66585;SDS011;53444;45.822;16.092;2022-11-20T06:34:32;1.63;;;1.00;;
66585;SDS011;53444;45.822;16.092;2022-11-20T06:36:58;1.92;;;1.10;;
66585;SDS011;53444;45.822;16.092;2022-11-20T06:39:25;2.60;;;1.30;;
66585;SDS011;53444;45.822;16.092;2022-11-20T06:41:53;3.58;;;1.45;;
66585;SDS011;53444;45.822;16.092;2022-11-20T06:44:20;1.77;;;1.23;;
66585;SDS011;53444;45.822;16.092;2022-11-20T06:46:46;3.30;;;1.65;;
66585;SDS011;53444;45.822;16.092;2022-11-20T06:49:13;3.13;;;1.63;;
66585;SDS011;53444;45.822;16.092;2022-11-20T06:51:39;3.90;;;1.60;;
66585;SDS011;53444;45.822;16.092;2022-11-20T06:54:06;3.17;;;1.65;;
66585;SDS011;53444;45.822;16.092;2022-11-20T06:56:33;3.03;;;1.53;;
66585;SDS011;53444;45.822;16.092;2022-11-20T06:59:04;3.53;;;1.80;;
66585;SDS011;53444;45.822;16.092;2022-11-20T07:01:31;3.45;;;1.33;;
66585;SDS011;53444;45.822;16.092;2022-11-20T07:03:58;4.22;;;2.47;;
66585;SDS011;53444;45.822;16.092;2022-11-20T07:06:25;5.45;;;2.47;;
66585;SDS011;53444;45.822;16.092;2022-11-20T07:08:51;4.47;;;2.43;;
66585;SDS011;53444;45.822;16.092;2022-11-20T07:11:18;3.92;;;2.28;;
66585;SDS011;53444;45.822;16.092;2022-11-20T07:13:45;3.85;;;1.98;;
66585;SDS011;53444;45.822;16.092;2022-11-20T07:16:13;3.97;;;2.00;;
66585;SDS011;53444;45.822;16.092;2022-11-20T07:18:40;3.63;;;1.98;;
66585;SDS011;53444;45.822;16.092;2022-11-20T07:21:07;3.03;;;1.70;;
66585;SDS011;53444;45.822;16.092;2022-11-20T07:23:35;4.30;;;2.00;;
66585;SDS011;53444;45.822;16.092;2022-11-20T07:26:03;4.30;;;2.05;;
66585;SDS011;53444;45.822;16.092;2022-11-20T07:28:30;5.07;;;2.15;;
66585;SDS011;53444;45.822;16.092;2022-11-20T07:30:56;4.72;;;2.42;;
66585;SDS011;53444;45.822;16.092;2022-11-20T07:33:24;3.93;;;2.50;;
66585;SDS011;53444;45.822;16.092;2022-11-20T07:35:51;4.15;;;2.40;;
66585;SDS011;53444;45.822;16.092;2022-11-20T07:38:17;5.78;;;2.92;;
66585;SDS011;53444;45.822;16.092;2022-11-20T07:40:44;4.32;;;2.30;;
66585;SDS011;53444;45.822;16.092;2022-11-20T07:43:11;5.10;;;2.85;;
66585;SDS011;53444;45.822;16.092;2022-11-20T07:45:37;5.27;;;2.47;;
66585;SDS011;53444;45.822;16.092;2022-11-20T07:48:04;7.18;;;3.05;;
66585;SDS011;53444;45.822;16.092;2022-11-20T07:50:32;10.07;;;5.22;;
66585;SDS011;53444;45.822;16.092;2022-11-20T07:53:02;10.00;;;5.90;;
66585;SDS011;53444;45.822;16.092;2022-11-20T07:55:29;9.88;;;5.15;;
66585;SDS011;53444;45.822;16.092;2022-11-20T07:57:56;13.03;;;6.97;;
66585;SDS011;53444;45.822;16.092;2022-11-20T08:00:23;24.02;;;13.98;;
66585;SDS011;53444;45.822;16.092;2022-11-20T08:02:50;29.10;;;14.20;;
66585;SDS011;53444;45.822;16.092;2022-11-20T08:05:17;26.52;;;13.32;;
66585;SDS011;53444;45.822;16.092;2022-11-20T08:07:45;23.55;;;12.23;;
66585;SDS011;53444;45.822;16.092;2022-11-20T08:10:12;11.70;;;6.67;;
66585;SDS011;53444;45.822;16.092;2022-11-20T08:12:44;22.70;;;7.40;;
66585;SDS011;53444;45.822;16.092;2022-11-20T08:15:28;14.95;;;8.18;;
66585;SDS011;53444;45.822;16.092;2022-11-20T08:17:59;14.23;;;7.75;;
66585;SDS011;53444;45.822;16.092;2022-11-20T08:20:26;17.27;;;9.07;;
66585;SDS011;53444;45.822;16.092;2022-11-20T08:22:58;15.40;;;8.70;;
66585;SDS011;53444;45.822;16.092;2022-11-20T08:25:26;12.68;;;6.65;;
66585;SDS011;53444;45.822;16.092;2022-11-20T08:27:53;11.70;;;5.75;;
66585;SDS011;53444;45.822;16.092;2022-11-20T08:30:19;14.98;;;7.15;;
66585;SDS011;53444;45.822;16.092;2022-11-20T08:32:46;12.43;;;6.80;;
66585;SDS011;53444;45.822;16.092;2022-11-20T08:35:12;13.07;;;6.13;;
66585;SDS011;53444;45.822;16.092;2022-11-20T08:37:39;12.30;;;6.35;;
66585;SDS011;53444;45.822;16.092;2022-11-20T08:40:09;10.98;;;6.05;;
66585;SDS011;53444;45.822;16.092;2022-11-20T08:42:37;13.02;;;6.85;;
66585;SDS011;53444;45.822;16.092;2022-11-20T08:45:04;13.80;;;6.75;;
66585;SDS011;53444;45.822;16.092;2022-11-20T08:47:31;13.27;;;8.43;;
66585;SDS011;53444;45.822;16.092;2022-11-20T08:49:57;12.13;;;6.88;;
66585;SDS011;53444;45.822;16.092;2022-11-20T08:52:24;12.35;;;7.65;;
66585;SDS011;53444;45.822;16.092;2022-11-20T08:54:50;16.70;;;8.70;;
66585;SDS011;53444;45.822;16.092;2022-11-20T08:57:18;17.58;;;9.05;;
66585;SDS011;53444;45.822;16.092;2022-11-20T08:59:45;18.37;;;9.27;;
66585;SDS011;53444;45.822;16.092;2022-11-20T09:02:12;16.30;;;8.38;;
66585;SDS011;53444;45.822;16.092;2022-11-20T09:04:38;16.48;;;8.38;;
66585;SDS011;53444;45.822;16.092;2022-11-20T09:07:05;18.33;;;9.90;;
66585;SDS011;53444;45.822;16.092;2022-11-20T09:09:31;18.45;;;10.05;;
66585;SDS011;53444;45.822;16.092;2022-11-20T09:11:58;22.87;;;12.60;;
66585;SDS011;53444;45.822;16.092;2022-11-20T09:14:26;12.98;;;6.68;;
66585;SDS011;53444;45.822;16.092;2022-11-20T09:16:55;10.07;;;5.78;;
66585;SDS011;53444;45.822;16.092;2022-11-20T09:19:21;11.75;;;6.70;;
66585;SDS011;53444;45.822;16.092;2022-11-20T09:21:49;8.90;;;4.60;;
66585;SDS011;53444;45.822;16.092;2022-11-20T09:24:16;8.50;;;5.50;;
66585;SDS011;53444;45.822;16.092;2022-11-20T09:26:43;12.25;;;5.90;;
66585;SDS011;53444;45.822;16.092;2022-11-20T09:29:10;12.65;;;6.70;;
66585;SDS011;53444;45.822;16.092;2022-11-20T09:31:38;13.48;;;5.75;;
66585;SDS011;53444;45.822;16.092;2022-11-20T09:34:04;13.68;;;6.35;;
66585;SDS011;53444;45.822;16.092;2022-11-20T09:36:31;14.30;;;7.57;;
66585;SDS011;53444;45.822;16.092;2022-11-20T09:38:57;15.43;;;8.85;;
66585;SDS011;53444;45.822;16.092;2022-11-20T09:41:34;19.45;;;9.98;;
66585;SDS011;53444;45.822;16.092;2022-11-20T09:44:13;23.17;;;11.90;;
66585;SDS011;53444;45.822;16.092;2022-11-20T09:46:53;26.95;;;12.50;;
66585;SDS011;53444;45.822;16.092;2022-11-20T09:49:24;29.50;;;12.40;;
66585;SDS011;53444;45.822;16.092;2022-11-20T09:51:58;26.58;;;12.55;;
66585;SDS011;53444;45.822;16.092;2022-11-20T09:54:27;22.85;;;12.32;;
66585;SDS011;53444;45.822;16.092;2022-11-20T09:56:58;16.38;;;9.23;;
66585;SDS011;53444;45.822;16.092;2022-11-20T09:59:32;17.08;;;8.52;;
66585;SDS011;53444;45.822;16.092;2022-11-20T10:02:08;13.60;;;6.43;;
66585;SDS011;53444;45.822;16.092;2022-11-20T10:04:43;15.27;;;8.30;;
66585;SDS011;53444;45.822;16.092;2022-11-20T10:07:15;11.52;;;6.80;;
66585;SDS011;53444;45.822;16.092;2022-11-20T10:09:48;15.77;;;8.25;;
66585;SDS011;53444;45.822;16.092;2022-11-20T10:12:19;17.17;;;8.90;;
66585;SDS011;53444;45.822;16.092;2022-11-20T10:14:56;16.07;;;7.73;;
66585;SDS011;53444;45.822;16.092;2022-11-20T10:17:36;16.00;;;8.48;;
66585;SDS011;53444;45.822;16.092;2022-11-20T10:20:18;12.88;;;7.53;;
66585;SDS011;53444;45.822;16.092;2022-11-20T10:22:54;19.70;;;9.23;;
66585;SDS011;53444;45.822;16.092;2022-11-20T10:25:31;14.35;;;8.77;;
66585;SDS011;53444;45.822;16.092;2022-11-20T10:28:08;15.93;;;8.17;;
66585;SDS011;53444;45.822;16.092;2022-11-20T10:30:43;16.00;;;8.43;;
66585;SDS011;53444;45.822;16.092;2022-11-20T10:33:15;13.38;;;8.25;;
66585;SDS011;53444;45.822;16.092;2022-11-20T10:35:44;14.52;;;7.30;;
66585;SDS011;53444;45.822;16.092;2022-11-20T10:38:16;13.80;;;7.35;;
66585;SDS011;53444;45.822;16.092;2022-11-20T10:40:48;12.77;;;7.63;;
66585;SDS011;53444;45.822;16.092;2022-11-20T10:43:17;14.90;;;8.98;;
66585;SDS011;53444;45.822;16.092;2022-11-20T10:45:49;14.40;;;8.77;;
66585;SDS011;53444;45.822;16.092;2022-11-20T10:48:22;12.45;;;7.28;;
66585;SDS011;53444;45.822;16.092;2022-11-20T10:50:55;16.98;;;8.30;;
66585;SDS011;53444;45.822;16.092;2022-11-20T10:53:42;19.70;;;11.20;;
66585;SDS011;53444;45.822;16.092;2022-11-20T10:56:20;14.38;;;8.85;;
66585;SDS011;53444;45.822;16.092;2022-11-20T10:59:05;12.98;;;7.30;;
66585;SDS011;53444;45.822;16.092;2022-11-20T11:01:50;13.68;;;6.72;;
66585;SDS011;53444;45.822;16.092;2022-11-20T11:04:22;10.80;;;5.63;;
66585;SDS011;53444;45.822;16.092;2022-11-20T11:06:57;11.40;;;6.27;;
66585;SDS011;53444;45.822;16.092;2022-11-20T11:09:30;13.70;;;7.07;;
66585;SDS011;53444;45.822;16.092;2022-11-20T11:12:00;13.05;;;6.30;;
66585;SDS011;53444;45.822;16.092;2022-11-20T11:14:27;14.82;;;7.22;;
66585;SDS011;53444;45.822;16.092;2022-11-20T11:16:54;12.52;;;5.72;;
66585;SDS011;53444;45.822;16.092;2022-11-20T11:19:23;12.80;;;6.50;;
66585;SDS011;53444;45.822;16.092;2022-11-20T11:21:51;10.70;;;5.20;;
66585;SDS011;53444;45.822;16.092;2022-11-20T11:24:20;10.35;;;5.60;;
66585;SDS011;53444;45.822;16.092;2022-11-20T11:26:52;12.85;;;6.80;;
66585;SDS011;53444;45.822;16.092;2022-11-20T11:29:21;14.60;;;7.22;;
66585;SDS011;53444;45.822;16.092;2022-11-20T11:31:48;15.97;;;7.33;;
66585;SDS011;53444;45.822;16.092;2022-11-20T11:34:15;11.38;;;6.82;;
66585;SDS011;53444;45.822;16.092;2022-11-20T11:36:49;14.43;;;7.22;;
66585;SDS011;53444;45.822;16.092;2022-11-20T11:39:21;12.63;;;6.47;;
66585;SDS011;53444;45.822;16.092;2022-11-20T11:41:48;14.73;;;8.18;;
66585;SDS011;53444;45.822;16.092;2022-11-20T11:44:17;12.17;;;6.93;;
66585;SDS011;53444;45.822;16.092;2022-11-20T11:47:03;13.20;;;6.82;;
66585;SDS011;53444;45.822;16.092;2022-11-20T11:49:32;12.18;;;7.00;;
66585;SDS011;53444;45.822;16.092;2022-11-20T11:52:02;13.02;;;8.02;;
66585;SDS011;53444;45.822;16.092;2022-11-20T11:54:35;12.85;;;6.88;;
66585;SDS011;53444;45.822;16.092;2022-11-20T11:57:10;12.23;;;6.70;;
66585;SDS011;53444;45.822;16.092;2022-11-20T11:59:47;14.15;;;7.30;;
66585;SDS011;53444;45.822;16.092;2022-11-20T12:02:29;17.60;;;8.52;;
66585;SDS011;53444;45.822;16.092;2022-11-20T12:05:03;15.27;;;9.15;;
66585;SDS011;53444;45.822;16.092;2022-11-20T12:07:42;14.38;;;7.50;;
66585;SDS011;53444;45.822;16.092;2022-11-20T12:10:14;15.20;;;7.70;;
66585;SDS011;53444;45.822;16.092;2022-11-20T12:12:44;16.05;;;7.00;;
66585;SDS011;53444;45.822;16.092;2022-11-20T12:15:16;15.75;;;7.80;;
66585;SDS011;53444;45.822;16.092;2022-11-20T12:17:51;19.38;;;8.50;;
66585;SDS011;53444;45.822;16.092;2022-11-20T12:20:18;13.90;;;7.88;;
66585;SDS011;53444;45.822;16.092;2022-11-20T12:22:51;18.43;;;8.30;;
66585;SDS011;53444;45.822;16.092;2022-11-20T12:25:22;15.65;;;8.27;;
66585;SDS011;53444;45.822;16.092;2022-11-20T12:27:57;14.80;;;9.13;;
66585;SDS011;53444;45.822;16.092;2022-11-20T12:30:38;12.60;;;8.00;;
66585;SDS011;53444;45.822;16.092;2022-11-20T12:33:13;14.55;;;5.97;;
66585;SDS011;53444;45.822;16.092;2022-11-20T12:35:59;15.70;;;7.93;;
66585;SDS011;53444;45.822;16.092;2022-11-20T12:38:59;12.25;;;6.43;;
66585;SDS011;53444;45.822;16.092;2022-11-20T12:41:43;11.00;;;5.78;;
66585;SDS011;53444;45.822;16.092;2022-11-20T12:44:43;11.77;;;7.38;;
66585;SDS011;53444;45.822;16.092;2022-11-20T12:47:39;16.38;;;7.32;;
66585;SDS011;53444;45.822;16.092;2022-11-20T12:50:15;15.53;;;7.07;;
66585;SDS011;53444;45.822;16.092;2022-11-20T12:52:55;17.35;;;9.52;;
66585;SDS011;53444;45.822;16.092;2022-11-20T12:55:28;18.10;;;9.32;;
66585;SDS011;53444;45.822;16.092;2022-11-20T12:58:01;20.50;;;10.20;;
66585;SDS011;53444;45.822;16.092;2022-11-20T13:00:34;16.23;;;8.75;;
66585;SDS011;53444;45.822;16.092;2022-11-20T13:03:22;17.83;;;9.33;;
66585;SDS011;53444;45.822;16.092;2022-11-20T13:06:02;18.42;;;9.38;;
66585;SDS011;53444;45.822;16.092;2022-11-20T13:08:37;12.73;;;7.55;;
66585;SDS011;53444;45.822;16.092;2022-11-20T13:11:09;11.93;;;7.40;;
66585;SDS011;53444;45.822;16.092;2022-11-20T13:13:43;14.43;;;8.20;;
66585;SDS011;53444;45.822;16.092;2022-11-20T13:16:30;17.47;;;9.57;;
66585;SDS011;53444;45.822;16.092;2022-11-20T13:19:02;14.52;;;8.85;;
66585;SDS011;53444;45.822;16.092;2022-11-20T13:21:35;16.75;;;8.68;;
66585;SDS011;53444;45.822;16.092;2022-11-20T13:24:06;15.20;;;9.15;;
66585;SDS011;53444;45.822;16.092;2022-11-20T13:26:35;17.40;;;10.18;;
66585;SDS011;53444;45.822;16.092;2022-11-20T13:29:03;19.43;;;9.50;;
66585;SDS011;53444;45.822;16.092;2022-11-20T13:31:35;18.25;;;10.15;;
66585;SDS011;53444;45.822;16.092;2022-11-20T13:34:05;18.08;;;9.90;;
66585;SDS011;53444;45.822;16.092;2022-11-20T13:36:33;17.90;;;9.88;;
66585;SDS011;53444;45.822;16.092;2022-11-20T13:39:01;22.38;;;11.30;;
66585;SDS011;53444;45.822;16.092;2022-11-20T13:41:29;23.83;;;13.57;;
66585;SDS011;53444;45.822;16.092;2022-11-20T13:44:04;20.98;;;12.73;;
66585;SDS011;53444;45.822;16.092;2022-11-20T13:46:37;19.20;;;10.18;;
66585;SDS011;53444;45.822;16.092;2022-11-20T13:49:06;23.17;;;13.65;;
66585;SDS011;53444;45.822;16.092;2022-11-20T13:51:37;19.08;;;9.75;;
66585;SDS011;53444;45.822;16.092;2022-11-20T13:54:22;14.30;;;8.13;;
66585;SDS011;53444;45.822;16.092;2022-11-20T13:57:14;17.10;;;9.30;;
66585;SDS011;53444;45.822;16.092;2022-11-20T14:00:04;17.00;;;9.32;;
66585;SDS011;53444;45.822;16.092;2022-11-20T14:02:37;17.77;;;9.95;;
66585;SDS011;53444;45.822;16.092;2022-11-20T14:05:05;19.02;;;9.90;;
66585;SDS011;53444;45.822;16.092;2022-11-20T14:07:33;18.00;;;8.57;;
66585;SDS011;53444;45.822;16.092;2022-11-20T14:10:03;15.95;;;9.20;;
66585;SDS011;53444;45.822;16.092;2022-11-20T14:12:31;17.25;;;9.60;;
66585;SDS011;53444;45.822;16.092;2022-11-20T14:14:59;19.85;;;10.30;;
66585;SDS011;53444;45.822;16.092;2022-11-20T14:17:31;20.98;;;11.10;;
66585;SDS011;53444;45.822;16.092;2022-11-20T14:19:59;21.03;;;10.60;;
66585;SDS011;53444;45.822;16.092;2022-11-20T14:22:28;22.98;;;11.25;;
66585;SDS011;53444;45.822;16.092;2022-11-20T14:25:02;26.10;;;12.02;;
66585;SDS011;53444;45.822;16.092;2022-11-20T14:27:32;25.50;;;12.88;;
66585;SDS011;53444;45.822;16.092;2022-11-20T14:30:02;22.73;;;11.60;;
66585;SDS011;53444;45.822;16.092;2022-11-20T14:32:31;20.90;;;11.13;;
66585;SDS011;53444;45.822;16.092;2022-11-20T14:34:59;20.05;;;10.43;;
66585;SDS011;53444;45.822;16.092;2022-11-20T14:37:33;23.27;;;12.63;;
66585;SDS011;53444;45.822;16.092;2022-11-20T14:40:02;24.17;;;13.15;;
66585;SDS011;53444;45.822;16.092;2022-11-20T14:42:31;23.15;;;12.48;;